Terminal Aerodrome Forecast
Issued by NWS Jackson, KY

Home | Current Version | Previous Version | Text Only | Print | Product List | Glossary On
Versions: 1 2 3 4 5 6 7 8 9 10 11 12 13 14 15
084
FTUS43 KJKL 210539
TAFJKL
TAF
KJKL 210539Z 2106/2206 22005KT P6SM VCTS SCT025 OVC060CB
     FM210900 VRB03KT P6SM VCSH OVC025
     FM211100 VRB06KT P6SM OVC015
     FM211900 36004KT P6SM BKN030
     FM212000 35004KT P6SM BKN050=

USA.gov is the U.S. government's official web portal to all federal, state and local government web resources and services.